Time;durP1;ratioP1;P1;durP2;ratioP2;P2;SDS_P1;SDS_P2;PMS_P1;PMS_P2;Temp;Humidity;BMP_temperature;BMP_pressure;BME280_temperature;BME280_humidity;BME280_pressure;Samples;Min_cycle;Max_cycle;Signal;HPM_P1;HPM_P2
2022/01/07 00:00:21;;;;;;;11.12;5.42;;;;;;;-2.73;64.91;97569.95;1722609;83;25869;-83
2022/01/07 00:02:54;;;;;;;12.63;5.35;;;;;;;-2.70;64.79;97567.06;1723134;82;25723;-83
2022/01/07 00:05:22;;;;;;;12.90;5.80;;;;;;;-2.69;64.78;97575.35;1722971;83;26745;-83
2022/01/07 00:07:48;;;;;;;11.85;5.10;;;;;;;-2.67;64.73;97573.91;1723039;82;25875;-82
2022/01/07 00:10:18;;;;;;;14.05;5.40;;;;;;;-2.64;64.67;97576.28;1723051;83;27364;-83
2022/01/07 00:12:45;;;;;;;20.85;7.65;;;;;;;-2.61;64.57;97574.72;1722843;82;25820;-83
2022/01/07 00:15:12;;;;;;;15.55;6.60;;;;;;;-2.58;64.50;97577.95;1723008;83;25741;-83
2022/01/07 00:17:39;;;;;;;17.12;6.87;;;;;;;-2.51;64.48;97584.05;1723031;82;25978;-83
2022/01/07 00:20:10;;;;;;;16.30;6.62;;;;;;;-2.51;64.41;97594.61;1723000;81;25775;-83
2022/01/07 00:22:40;;;;;;;16.27;6.78;;;;;;;-2.55;64.44;97597.53;1722979;83;28218;-83
2022/01/07 00:25:09;;;;;;;15.88;6.70;;;;;;;-2.57;64.45;97598.14;1722812;82;25701;-83
2022/01/07 00:27:37;;;;;;;16.27;6.47;;;;;;;-2.55;64.47;97598.86;1722920;83;26288;-83
2022/01/07 00:30:07;;;;;;;15.85;6.05;;;;;;;-2.52;64.44;97600.86;1723007;83;26200;-83
2022/01/07 00:32:33;;;;;;;14.18;5.95;;;;;;;-2.49;64.39;97596.17;1722977;83;25804;-83
2022/01/07 00:35:00;;;;;;;11.85;5.78;;;;;;;-2.47;64.33;97599.54;1722964;83;27349;-83
2022/01/07 00:37:27;;;;;;;12.13;5.47;;;;;;;-2.48;64.23;97599.18;1722852;83;25418;-83
2022/01/07 00:39:54;;;;;;;16.45;5.55;;;;;;;-2.51;64.23;97608.67;1722925;83;25777;-83
2022/01/07 00:42:20;;;;;;;16.45;5.70;;;;;;;-2.54;64.22;97607.11;1722894;82;25996;-82
2022/01/07 00:44:47;;;;;;;14.05;6.75;;;;;;;-2.58;64.19;97610.99;1722948;83;25718;-82
2022/01/07 00:47:14;;;;;;;15.18;6.33;;;;;;;-2.59;64.24;97617.72;1722914;82;28180;-82
2022/01/07 00:49:40;;;;;;;16.73;7.58;;;;;;;-2.62;64.25;97616.64;1722934;83;25740;-83
2022/01/07 00:52:07;;;;;;;18.92;8.15;;;;;;;-2.62;64.34;97625.89;1722945;83;25767;-82
2022/01/07 00:54:34;;;;;;;21.55;8.45;;;;;;;-2.65;64.27;97623.00;1723007;82;26818;-83
2022/01/07 00:57:00;;;;;;;16.75;6.40;;;;;;;-2.65;64.35;97627.45;1722748;83;25895;-82
2022/01/07 00:59:27;;;;;;;17.98;6.62;;;;;;;-2.66;64.26;97626.64;1722935;83;27315;-83
2022/01/07 01:01:54;;;;;;;15.65;6.25;;;;;;;-2.71;64.21;97625.32;1722894;83;25717;-83
2022/01/07 01:04:21;;;;;;;16.17;6.00;;;;;;;-2.74;64.28;97630.36;1723017;83;25826;-83
2022/01/07 01:06:47;;;;;;;17.30;6.55;;;;;;;-2.73;64.33;97620.16;1722927;81;25981;-83
2022/01/07 01:09:14;;;;;;;14.60;5.45;;;;;;;-2.72;64.29;97627.12;1723004;83;25781;-83
2022/01/07 01:11:40;;;;;;;12.18;6.30;;;;;;;-2.76;64.27;97629.64;1723063;83;26807;-83
2022/01/07 01:14:08;;;;;;;17.57;7.45;;;;;;;-2.83;64.35;97627.14;1722881;83;25740;-82
2022/01/07 01:16:36;;;;;;;19.60;7.45;;;;;;;-2.79;64.41;97625.95;1723001;82;25861;-83
2022/01/07 01:19:05;;;;;;;20.12;7.47;;;;;;;-2.81;64.39;97626.55;1722917;83;26045;-83
2022/01/07 01:21:35;;;;;;;16.30;6.87;;;;;;;-2.89;64.36;97623.66;1722952;83;25804;-83
2022/01/07 01:24:01;;;;;;;73.42;29.82;;;;;;;-2.97;64.40;97626.92;1722909;81;28218;-83
2022/01/07 01:26:28;;;;;;;86.30;34.92;;;;;;;-3.05;64.47;97633.78;1722853;82;25790;-83
2022/01/07 01:28:54;;;;;;;73.80;27.98;;;;;;;-3.13;64.54;97635.69;1722941;83;25832;-83
2022/01/07 01:31:21;;;;;;;71.35;29.57;;;;;;;-3.17;64.71;97633.43;1722940;83;26659;-82
2022/01/07 01:33:48;;;;;;;30.20;13.55;;;;;;;-3.24;64.75;97634.86;1722891;82;25847;-83
2022/01/07 01:36:15;;;;;;;16.93;7.67;;;;;;;-3.32;64.72;97631.03;1722971;82;27531;-82
2022/01/07 01:38:42;;;;;;;14.23;5.95;;;;;;;-3.48;64.77;97628.38;1722884;83;25840;-82
2022/01/07 01:41:09;;;;;;;16.77;7.70;;;;;;;-3.64;64.85;97630.06;1722947;81;25709;-82
2022/01/07 01:43:36;;;;;;;26.07;9.10;;;;;;;-3.73;65.13;97625.46;1741522;80;26016;-83
2022/01/07 01:46:03;;;;;;;52.83;18.00;;;;;;;-3.78;65.23;97626.31;1750674;81;25780;-82
2022/01/07 01:48:30;;;;;;;50.75;17.40;;;;;;;-3.79;65.23;97629.42;1750529;81;27333;-82
2022/01/07 01:50:57;;;;;;;27.93;9.68;;;;;;;-3.82;65.35;97632.29;1750610;81;25714;-82
2022/01/07 01:53:25;;;;;;;18.80;7.53;;;;;;;-3.91;65.34;97630.84;1750503;81;25726;-83
2022/01/07 01:55:53;;;;;;;17.32;7.42;;;;;;;-4.04;65.41;97627.81;1750527;81;26978;-82
2022/01/07 01:58:20;;;;;;;15.78;6.45;;;;;;;-4.08;65.69;97628.98;1750544;81;26513;-83
2022/01/07 02:00:46;;;;;;;17.10;7.20;;;;;;;-4.12;65.72;97630.67;1750517;80;28175;-83
2022/01/07 02:03:13;;;;;;;18.32;7.90;;;;;;;-4.17;65.73;97631.48;1750379;81;25758;-82
2022/01/07 02:05:40;;;;;;;16.30;7.47;;;;;;;-4.20;65.90;97630.37;1750518;81;25777;-82
2022/01/07 02:08:09;;;;;;;17.82;6.95;;;;;;;-4.24;66.00;97633.75;1750585;81;25986;-82
2022/01/07 02:10:35;;;;;;;18.37;7.65;;;;;;;-4.29;66.14;97627.96;1750503;81;25650;-82
2022/01/07 02:13:02;;;;;;;21.97;8.38;;;;;;;-4.28;66.30;97618.27;1750574;81;27349;-82
2022/01/07 02:15:29;;;;;;;25.23;9.45;;;;;;;-4.27;66.39;97624.73;1750405;81;25840;-82
2022/01/07 02:17:57;;;;;;;22.10;10.32;;;;;;;-4.29;66.45;97627.12;1750538;81;25765;-83
2022/01/07 02:20:28;;;;;;;26.82;11.33;;;;;;;-4.32;66.48;97622.91;1750468;81;27043;-82
2022/01/07 02:22:58;;;;;;;20.75;8.28;;;;;;;-4.33;66.49;97626.50;1750851;81;25703;-82
2022/01/07 02:25:25;;;;;;;28.65;13.00;;;;;;;-4.33;66.45;97621.23;1750537;81;27453;-83
2022/01/07 02:27:53;;;;;;;27.37;11.15;;;;;;;-4.34;66.45;97626.12;1750294;81;26444;-81
2022/01/07 02:30:25;;;;;;;31.17;12.65;;;;;;;-4.38;66.48;97622.91;1750715;80;25741;-82
2022/01/07 02:32:52;;;;;;;30.75;13.38;;;;;;;-4.40;66.57;97620.02;1750539;81;26003;-82
2022/01/07 02:35:22;;;;;;;28.52;12.15;;;;;;;-4.39;66.56;97620.38;1750707;81;25697;-82
2022/01/07 02:37:49;;;;;;;28.52;12.33;;;;;;;-4.45;66.59;97615.55;1750678;81;27396;-82
2022/01/07 02:40:15;;;;;;;27.45;11.53;;;;;;;-4.50;66.64;97617.22;1752191;81;25784;-83
2022/01/07 02:42:43;;;;;;;26.80;11.28;;;;;;;-4.58;66.62;97620.03;1752514;81;25734;-83
2022/01/07 02:45:11;;;;;;;23.85;11.25;;;;;;;-4.66;66.71;97617.97;1752766;81;26138;-83
2022/01/07 02:47:55;;;;;;;23.52;10.85;;;;;;;-4.68;66.73;97619.88;1752838;80;25809;-83
2022/01/07 02:50:27;;;;;;;25.20;11.78;;;;;;;-4.73;66.76;97620.70;1753088;81;27390;-83
2022/01/07 02:52:55;;;;;;;27.73;11.78;;;;;;;-4.76;66.76;97619.12;1753188;81;26461;-83
2022/01/07 02:55:23;;;;;;;23.12;10.53;;;;;;;-4.81;66.76;97618.61;1753092;81;25830;-83
2022/01/07 02:57:50;;;;;;;22.85;10.13;;;;;;;-4.85;66.92;97622.44;1753092;81;26087;-83
2022/01/07 03:00:20;;;;;;;22.95;10.48;;;;;;;-4.91;66.97;97628.60;1753162;81;25353;-84
2022/01/07 03:02:49;;;;;;;26.37;11.75;;;;;;;-4.99;67.01;97623.06;1753069;81;27376;-83
2022/01/07 03:05:17;;;;;;;28.12;10.88;;;;;;;-5.05;67.08;97628.27;1752970;81;25770;-83
2022/01/07 03:07:50;;;;;;;25.82;11.33;;;;;;;-5.13;67.05;97618.78;1752966;81;25792;-83
2022/01/07 03:10:16;;;;;;;26.60;11.60;;;;;;;-5.18;67.14;97619.09;1752454;81;26996;-83
2022/01/07 03:12:43;;;;;;;31.10;12.60;;;;;;;-5.22;67.17;97626.02;1753065;81;25631;-83
2022/01/07 03:15:12;;;;;;;24.90;11.60;;;;;;;-5.31;67.18;97630.63;1753129;81;28340;-83
2022/01/07 03:17:40;;;;;;;25.00;11.70;;;;;;;-5.38;67.35;97627.56;1752959;81;25773;-83
2022/01/07 03:20:13;;;;;;;27.25;11.93;;;;;;;-5.39;67.41;97634.24;1753057;81;26383;-82
2022/01/07 03:22:41;;;;;;;24.52;11.10;;;;;;;-5.41;67.52;97630.87;1753113;81;26721;-83
2022/01/07 03:25:09;;;;;;;26.23;12.23;;;;;;;-5.43;67.61;97629.66;1753070;81;25795;-83
2022/01/07 03:27:38;;;;;;;25.60;12.30;;;;;;;-5.47;67.59;97634.31;1753026;81;28199;-83
2022/01/07 03:30:07;;;;;;;28.60;12.07;;;;;;;-5.54;67.68;97637.45;1752913;81;25847;-83
2022/01/07 03:32:34;;;;;;;25.10;11.75;;;;;;;-5.55;67.74;97646.30;1753092;81;25691;-83
2022/01/07 03:35:03;;;;;;;27.58;11.75;;;;;;;-5.60;67.79;97645.31;1753047;81;27017;-83
2022/01/07 03:37:29;;;;;;;29.80;13.48;;;;;;;-5.60;67.84;97642.69;1753037;81;25370;-82
2022/01/07 03:39:56;;;;;;;25.50;10.65;;;;;;;-5.61;67.88;97638.37;1753082;81;27391;-81
2022/01/07 03:42:22;;;;;;;23.27;9.00;;;;;;;-5.61;67.87;97646.27;1752928;81;25768;-82
2022/01/07 03:44:49;;;;;;;22.73;8.83;;;;;;;-5.61;67.85;97641.00;1752762;81;25737;-82
2022/01/07 03:47:16;;;;;;;15.65;7.17;;;;;;;-5.63;67.83;97641.58;1752769;81;26317;-82
2022/01/07 03:49:42;;;;;;;17.90;7.70;;;;;;;-5.72;67.87;97635.64;1753137;81;25741;-82
2022/01/07 03:52:09;;;;;;;23.27;8.98;;;;;;;-5.74;68.01;97640.16;1753035;81;27199;-82
2022/01/07 03:54:35;;;;;;;20.92;9.08;;;;;;;-5.75;68.01;97641.10;1752900;81;25832;-83
2022/01/07 03:57:02;;;;;;;21.07;9.48;;;;;;;-5.85;68.02;97637.42;1753075;81;25688;-83
2022/01/07 03:59:30;;;;;;;22.93;10.70;;;;;;;-5.95;68.13;97639.03;1752990;80;25971;-82
2022/01/07 04:01:56;;;;;;;22.37;10.93;;;;;;;-6.04;68.26;97640.97;1753065;81;26291;-82
2022/01/07 04:04:23;;;;;;;20.65;9.78;;;;;;;-6.16;68.36;97637.86;1753008;81;28243;-81
2022/01/07 04:06:50;;;;;;;25.88;9.78;;;;;;;-6.19;68.53;97633.17;1752926;81;25714;-82
2022/01/07 04:09:16;;;;;;;21.80;9.58;;;;;;;-6.24;68.57;97633.94;1753094;81;25733;-82
2022/01/07 04:11:43;;;;;;;19.62;8.38;;;;;;;-6.31;68.61;97639.24;1753009;81;26837;-82
2022/01/07 04:14:09;;;;;;;17.30;8.25;;;;;;;-6.31;68.71;97639.71;1753038;81;25748;-82
2022/01/07 04:16:36;;;;;;;15.13;7.17;;;;;;;-6.32;68.78;97647.22;1753093;81;27592;-82
2022/01/07 04:19:03;;;;;;;21.65;8.35;;;;;;;-6.36;68.80;97647.88;1752972;81;25694;-82
2022/01/07 04:21:29;;;;;;;21.00;8.35;;;;;;;-6.33;68.94;97650.31;1753095;81;25835;-82
2022/01/07 04:23:56;;;;;;;21.95;9.68;;;;;;;-6.30;69.00;97655.38;1753010;80;26953;-83
2022/01/07 04:26:22;;;;;;;18.25;8.58;;;;;;;-6.31;69.02;97656.31;1753114;81;25670;-82
2022/01/07 04:28:49;;;;;;;20.45;9.58;;;;;;;-6.33;69.01;97658.20;1753040;81;27348;-83
2022/01/07 04:31:15;;;;;;;25.12;10.05;;;;;;;-6.31;69.04;97651.06;1752996;81;25828;-82
2022/01/07 04:33:42;;;;;;;19.40;9.03;;;;;;;-6.32;69.00;97649.38;1753059;81;25798;-82
2022/01/07 04:36:09;;;;;;;22.45;9.93;;;;;;;-6.35;68.88;97643.00;1752961;81;26806;-82
2022/01/07 04:38:35;;;;;;;24.85;10.00;;;;;;;-6.38;68.92;97641.04;1752980;81;25815;-82
2022/01/07 04:41:02;;;;;;;18.12;9.05;;;;;;;-6.41;68.96;97653.93;1752997;81;27326;-82
2022/01/07 04:43:28;;;;;;;26.82;9.25;;;;;;;-6.42;68.95;97645.67;1752804;81;26074;-82
2022/01/07 04:45:55;;;;;;;19.65;8.78;;;;;;;-6.45;68.88;97653.75;1752203;81;25689;-82
2022/01/07 04:48:22;;;;;;;17.20;7.85;;;;;;;-6.49;68.90;97653.57;1752489;81;26821;-82
2022/01/07 04:50:48;;;;;;;19.27;8.48;;;;;;;-6.51;68.93;97649.35;1752553;81;25644;-81
2022/01/07 04:53:15;;;;;;;17.92;7.87;;;;;;;-6.54;69.01;97659.61;1752552;81;27352;-82
2022/01/07 04:55:44;;;;;;;20.02;8.98;;;;;;;-6.59;69.02;97656.42;1752391;81;25893;-83
2022/01/07 04:58:12;;;;;;;21.55;9.83;;;;;;;-6.65;69.05;97658.16;1752416;81;25709;-83
2022/01/07 05:00:41;;;;;;;30.17;16.17;;;;;;;-6.67;69.21;97655.63;1752415;81;25924;-83
2022/01/07 05:03:09;;;;;;;25.85;13.43;;;;;;;-6.66;69.34;97657.78;1752557;81;25731;-82
2022/01/07 05:05:36;;;;;;;24.35;11.35;;;;;;;-6.61;69.34;97659.62;1752471;81;28534;-82
2022/01/07 05:08:04;;;;;;;24.45;10.35;;;;;;;-6.58;69.34;97661.59;1752341;81;26138;-81
2022/01/07 05:10:32;;;;;;;24.75;11.25;;;;;;;-6.55;69.44;97662.70;1752424;81;25730;-83
2022/01/07 05:12:58;;;;;;;22.60;9.50;;;;;;;-6.51;69.32;97663.33;1752421;81;26220;-82
2022/01/07 05:15:25;;;;;;;22.22;9.45;;;;;;;-6.51;69.29;97662.02;1752526;81;25780;-83
2022/01/07 05:17:52;;;;;;;24.50;9.80;;;;;;;-6.52;69.25;97661.67;1752416;81;28085;-82
2022/01/07 05:20:19;;;;;;;23.90;9.63;;;;;;;-6.53;69.23;97665.70;1752399;81;26042;-82
2022/01/07 05:22:46;;;;;;;23.05;10.63;;;;;;;-6.57;69.22;97661.12;1752422;81;25781;-82
2022/01/07 05:25:14;;;;;;;23.15;9.90;;;;;;;-6.56;69.20;97664.12;1752249;80;25996;-82
2022/01/07 05:27:41;;;;;;;24.20;10.65;;;;;;;-6.55;69.13;97660.55;1752395;81;25653;-82
2022/01/07 05:30:11;;;;;;;22.13;10.53;;;;;;;-6.57;69.06;97667.21;1752481;81;28448;-82
2022/01/07 05:32:39;;;;;;;24.85;11.55;;;;;;;-6.58;69.02;97667.30;1752406;81;25691;-83
2022/01/07 05:35:08;;;;;;;25.45;11.35;;;;;;;-6.58;68.97;97665.52;1752432;81;25754;-80
2022/01/07 05:37:34;;;;;;;28.15;12.73;;;;;;;-6.64;68.92;97663.78;1752463;81;26156;-82
2022/01/07 05:40:03;;;;;;;31.15;14.25;;;;;;;-6.71;68.96;97663.78;1752571;81;25677;-82
2022/01/07 05:42:29;;;;;;;34.65;16.90;;;;;;;-6.74;69.00;97673.16;1752467;81;27344;-81
2022/01/07 05:44:57;;;;;;;36.45;15.58;;;;;;;-6.76;68.94;97665.88;1752353;81;25924;-82
2022/01/07 05:47:23;;;;;;;34.48;14.93;;;;;;;-6.78;68.99;97671.70;1752747;81;25671;-82
2022/01/07 05:49:50;;;;;;;33.02;15.85;;;;;;;-6.81;68.94;97666.63;1753028;81;26013;-82
2022/01/07 05:52:17;;;;;;;34.33;17.32;;;;;;;-6.85;68.92;97675.16;1753071;81;25773;-82
2022/01/07 05:54:43;;;;;;;31.97;15.72;;;;;;;-6.87;68.93;97670.95;1752980;81;26809;-83
2022/01/07 05:57:10;;;;;;;36.30;17.62;;;;;;;-6.88;68.91;97678.48;1752995;81;25264;-83
2022/01/07 05:59:37;;;;;;;38.78;19.55;;;;;;;-6.90;68.92;97683.82;1753051;81;25638;-82
2022/01/07 06:02:04;;;;;;;44.38;22.05;;;;;;;-6.92;68.90;97685.22;1752947;81;26037;-82
2022/01/07 06:04:30;;;;;;;40.58;20.40;;;;;;;-6.95;68.94;97689.34;1753077;81;25255;-82
2022/01/07 06:06:57;;;;;;;36.60;19.20;;;;;;;-6.96;68.90;97687.66;1752898;81;27256;-81
2022/01/07 06:09:23;;;;;;;45.58;21.17;;;;;;;-6.97;68.88;97692.53;1752992;81;25948;-81
2022/01/07 06:11:50;;;;;;;47.65;23.02;;;;;;;-7.00;68.92;97695.34;1753037;81;25703;-82
2022/01/07 06:14:17;;;;;;;52.35;25.23;;;;;;;-7.03;68.94;97691.62;1752924;81;25983;-82
2022/01/07 06:16:43;;;;;;;58.73;27.10;;;;;;;-7.02;68.94;97695.09;1753033;81;26416;-79
2022/01/07 06:19:10;;;;;;;54.13;25.85;;;;;;;-7.06;68.97;97683.93;1753027;81;27428;-81
2022/01/07 06:21:36;;;;;;;49.77;21.70;;;;;;;-7.12;68.99;97676.42;1752824;81;25300;-81
2022/01/07 06:24:04;;;;;;;52.13;21.10;;;;;;;-7.17;69.04;97675.89;1752718;80;26301;-82
2022/01/07 06:26:31;;;;;;;55.33;24.98;;;;;;;-7.20;69.02;97677.85;1752924;80;25986;-82
2022/01/07 06:28:58;;;;;;;54.13;26.40;;;;;;;-7.29;69.09;97674.88;1753007;81;25639;-82
2022/01/07 06:31:25;;;;;;;62.48;26.37;;;;;;;-7.35;69.24;97674.39;1752693;81;27418;-81
2022/01/07 06:33:51;;;;;;;56.60;26.05;;;;;;;-7.37;69.31;97671.05;1752859;81;25709;-80
2022/01/07 06:36:18;;;;;;;61.30;26.68;;;;;;;-7.36;69.41;97682.73;1753017;81;25683;-82
2022/01/07 06:38:45;;;;;;;85.28;32.50;;;;;;;-7.33;69.43;97680.39;1752946;81;26150;-82
2022/01/07 06:41:11;;;;;;;94.42;41.05;;;;;;;-7.30;69.39;97677.59;1752976;80;25745;-83
2022/01/07 06:43:38;;;;;;;147.17;69.55;;;;;;;-7.29;69.31;97676.65;1752893;81;27521;-81
2022/01/07 06:46:05;;;;;;;154.93;84.67;;;;;;;-7.27;69.26;97673.00;1752269;81;25820;-83
2022/01/07 06:48:32;;;;;;;105.32;44.58;;;;;;;-7.23;69.31;97671.02;1752379;81;25702;-83
2022/01/07 06:50:59;;;;;;;121.28;44.33;;;;;;;-7.24;69.22;97661.45;1752435;81;25997;-82
2022/01/07 06:53:25;;;;;;;102.90;40.28;;;;;;;-7.24;69.12;97660.64;1752531;81;25693;-82
2022/01/07 06:55:52;;;;;;;112.57;41.20;;;;;;;-7.22;69.13;97659.58;1752426;81;27518;-82
2022/01/07 06:58:18;;;;;;;91.30;38.48;;;;;;;-7.21;69.07;97660.42;1752394;81;25801;-83
2022/01/07 07:00:45;;;;;;;101.18;42.05;;;;;;;-7.25;68.95;97651.93;1752466;81;25782;-82
2022/01/07 07:03:11;;;;;;;76.57;35.95;;;;;;;-7.29;68.98;97649.11;1752115;81;26055;-83
2022/01/07 07:05:38;;;;;;;74.58;33.95;;;;;;;-7.30;69.00;97650.05;1752545;81;25743;-83
2022/01/07 07:08:05;;;;;;;79.20;33.18;;;;;;;-7.34;68.99;97652.48;1752541;81;27518;-81
2022/01/07 07:10:31;;;;;;;71.92;33.55;;;;;;;-7.38;69.06;97655.78;1752457;81;25730;-82
2022/01/07 07:12:58;;;;;;;80.67;35.35;;;;;;;-7.39;69.20;97648.00;1752476;81;26354;-83
2022/01/07 07:15:24;;;;;;;73.70;34.58;;;;;;;-7.36;69.30;97649.09;1752641;81;26207;-82
2022/01/07 07:17:51;;;;;;;63.58;31.42;;;;;;;-7.36;69.36;97648.63;1752643;81;25726;-81
2022/01/07 07:20:18;;;;;;;64.72;32.98;;;;;;;-7.34;69.41;97643.30;1752642;81;27981;-83
2022/01/07 07:22:45;;;;;;;83.45;41.85;;;;;;;-7.31;69.43;97641.80;1752410;81;26001;-83
2022/01/07 07:25:12;;;;;;;112.97;48.20;;;;;;;-7.30;69.47;97644.80;1745076;81;25710;-83
2022/01/07 07:27:39;;;;;;;98.10;45.70;;;;;;;-7.25;69.46;97646.68;1752548;81;26025;-82
2022/01/07 07:30:08;;;;;;;90.80;47.17;;;;;;;-7.22;69.44;97645.16;1752620;81;25773;-82
2022/01/07 07:32:36;;;;;;;116.12;56.55;;;;;;;-7.20;69.48;97640.66;1741198;81;27365;-82
2022/01/07 07:37:39;;;;;;;124.50;54.50;;;;;;;-7.18;69.56;97653.22;1752463;81;25754;-83
2022/01/07 07:40:08;;;;;;;122.02;52.98;;;;;;;-7.18;69.62;97649.28;1752424;81;26419;-82
2022/01/07 07:42:34;;;;;;;126.35;51.48;;;;;;;-7.21;69.56;97638.97;1752520;81;25699;-84
2022/01/07 07:45:01;;;;;;;123.60;49.73;;;;;;;-7.18;69.52;97651.91;1752490;81;28065;-84
2022/01/07 07:47:29;;;;;;;121.72;48.58;;;;;;;-7.15;69.58;97646.94;1752431;81;25801;-85
2022/01/07 07:49:55;;;;;;;108.00;46.48;;;;;;;-7.10;69.53;97655.34;1730390;81;25687;-82
2022/01/07 07:52:22;;;;;;;108.60;45.67;;;;;;;-7.07;69.52;97650.75;1745067;81;26316;-86
2022/01/07 07:54:48;;;;;;;110.55;45.08;;;;;;;-7.02;69.43;97661.81;1752641;81;25719;-87
2022/01/07 07:57:15;;;;;;;111.05;49.10;;;;;;;-6.98;69.42;97671.16;1743678;81;28352;-85
2022/01/07 07:59:41;;;;;;;110.75;48.73;;;;;;;-6.94;69.51;97666.56;1728961;81;25944;-85
2022/01/07 08:02:09;;;;;;;115.25;49.73;;;;;;;-6.92;69.46;97661.60;1742811;81;25817;-86
2022/01/07 08:04:39;;;;;;;120.08;51.90;;;;;;;-6.91;69.52;97663.76;1735747;81;26729;-87
2022/01/07 08:07:06;;;;;;;129.65;53.05;;;;;;;-6.91;69.61;97657.20;1752131;81;25761;-86
2022/01/07 08:09:38;;;;;;;113.90;52.48;;;;;;;-6.84;69.75;97651.92;1742495;80;28031;-87
2022/01/07 08:12:15;;;;;;;131.55;55.88;;;;;;;-6.77;69.86;97647.97;1746162;81;26262;-86
2022/01/07 08:17:15;;;;;;;161.80;68.22;;;;;;;-6.61;70.07;97651.74;1748609;81;26012;-86
2022/01/07 08:19:41;;;;;;;173.82;71.28;;;;;;;-6.52;70.16;97639.34;1738815;81;25744;-85
2022/01/07 08:22:08;;;;;;;165.95;70.05;;;;;;;-6.43;70.23;97637.89;1739997;81;27345;-85
2022/01/07 08:24:34;;;;;;;128.50;54.35;;;;;;;-6.34;70.36;97639.91;1752259;81;25292;-86
2022/01/07 08:27:01;;;;;;;79.58;33.78;;;;;;;-6.21;70.31;97641.62;1752154;81;25682;-85
2022/01/07 08:29:31;;;;;;;56.68;24.77;;;;;;;-6.05;70.22;97640.13;1752386;81;26339;-87
2022/01/07 08:34:54;;;;;;;65.62;30.15;;;;;;;-5.70;69.89;97633.75;1734154;81;27440;-86
2022/01/07 08:37:24;;;;;;;52.03;24.05;;;;;;;-5.49;69.83;97632.27;1752045;81;25839;-87
2022/01/07 08:39:52;;;;;;;42.08;19.35;;;;;;;-5.30;69.66;97629.17;1751844;81;25817;-86
2022/01/07 08:42:19;;;;;;;42.70;20.17;;;;;;;-5.12;69.46;97628.36;1739012;81;26014;-85
2022/01/07 08:44:45;;;;;;;51.05;22.93;;;;;;;-4.92;69.47;97626.45;1722363;81;25889;-86
2022/01/07 08:47:12;;;;;;;49.00;22.10;;;;;;;-4.73;69.16;97618.91;1746935;81;28219;-86
2022/01/07 08:49:39;;;;;;;49.08;22.85;;;;;;;-4.50;69.04;97623.81;1739196;81;25801;-86
2022/01/07 08:52:06;;;;;;;37.60;17.20;;;;;;;-4.30;68.91;97628.91;1745832;81;26354;-86
2022/01/07 08:54:32;;;;;;;32.40;13.80;;;;;;;-4.15;68.60;97630.89;1752855;81;25967;-86
2022/01/07 08:56:59;;;;;;;28.65;14.35;;;;;;;-3.93;68.32;97638.02;1752877;80;25788;-85
2022/01/07 08:59:25;;;;;;;39.18;16.73;;;;;;;-3.69;68.02;97640.11;1752639;80;27366;-84
2022/01/07 09:01:52;;;;;;;39.42;16.93;;;;;;;-3.45;67.88;97632.94;1752611;81;25757;-85
2022/01/07 09:04:19;;;;;;;42.30;18.77;;;;;;;-3.13;67.62;97625.13;1753021;81;25713;-86
2022/01/07 09:06:45;;;;;;;42.10;17.80;;;;;;;-2.82;67.22;97619.58;1752870;81;26093;-85
2022/01/07 09:09:12;;;;;;;35.28;16.25;;;;;;;-2.51;66.82;97613.13;1740185;81;26580;-86
2022/01/07 09:11:39;;;;;;;38.02;15.32;;;;;;;-2.25;66.43;97611.82;1752714;81;28157;-86
2022/01/07 09:14:05;;;;;;;31.45;14.58;;;;;;;-2.01;66.07;97611.59;1752804;81;25287;-86
2022/01/07 09:16:32;;;;;;;28.55;12.73;;;;;;;-1.81;65.48;97603.64;1733629;81;25715;-86
2022/01/07 09:19:00;;;;;;;27.98;12.23;;;;;;;-1.69;65.23;97596.47;1734390;81;26095;-86
2022/01/07 09:21:27;;;;;;;32.40;15.05;;;;;;;-1.51;65.02;97602.02;1749840;81;25781;-86
2022/01/07 09:23:53;;;;;;;33.28;14.33;;;;;;;-1.34;64.85;97598.77;1744946;81;27355;-86
2022/01/07 09:26:21;;;;;;;39.38;16.62;;;;;;;-1.13;64.49;97588.11;1727860;81;25822;-86
2022/01/07 09:28:47;;;;;;;28.40;13.13;;;;;;;-0.86;64.10;97587.49;1752863;81;25706;-87
2022/01/07 09:31:17;;;;;;;25.65;12.93;;;;;;;-0.58;63.75;97581.38;1752732;81;26199;-87
2022/01/07 09:33:44;;;;;;;32.80;15.45;;;;;;;-0.33;63.39;97587.13;1752781;81;26424;-88
2022/01/07 09:36:10;;;;;;;37.03;16.17;;;;;;;-0.12;63.01;97585.20;1752770;81;27348;-87
2022/01/07 09:38:37;;;;;;;35.20;15.55;;;;;;;0.04;62.51;97585.44;1747111;80;25856;-87
2022/01/07 09:41:05;;;;;;;30.72;14.03;;;;;;;0.21;61.99;97588.71;1722894;82;25829;-87
2022/01/07 09:43:32;;;;;;;42.20;16.25;;;;;;;0.34;61.71;97589.73;1724707;81;26694;-87
2022/01/07 09:45:59;;;;;;;39.25;17.48;;;;;;;0.50;61.71;97586.45;1727653;80;25746;-87
2022/01/07 09:48:25;;;;;;;39.63;18.42;;;;;;;0.67;61.14;97585.23;1744956;81;28459;-86
2022/01/07 09:50:52;;;;;;;36.08;17.20;;;;;;;0.84;60.94;97577.00;1752280;81;25752;-86
2022/01/07 09:53:19;;;;;;;53.73;23.05;;;;;;;1.09;60.71;97586.92;1752024;81;25714;-87
2022/01/07 09:55:47;;;;;;;31.52;15.45;;;;;;;1.26;60.14;97581.31;1752314;81;26569;-87
2022/01/07 09:58:13;;;;;;;33.98;15.50;;;;;;;1.32;59.96;97573.24;1752367;81;25717;-86
2022/01/07 10:00:44;;;;;;;35.05;16.00;;;;;;;1.39;59.50;97567.66;1752394;81;27451;-87
2022/01/07 10:03:14;;;;;;;35.90;15.50;;;;;;;1.56;59.15;97570.00;1752586;81;25707;-87
2022/01/07 10:05:49;;;;;;;36.70;15.53;;;;;;;1.79;59.07;97560.08;1751925;81;25745;-87
2022/01/07 10:08:28;;;;;;;40.70;18.92;;;;;;;1.98;58.61;97556.89;1752451;81;26038;-86
2022/01/07 10:11:18;;;;;;;30.75;15.70;;;;;;;2.25;58.26;97559.44;1752333;81;26582;-87
2022/01/07 10:13:50;;;;;;;31.93;16.23;;;;;;;2.51;58.23;97542.97;1736944;81;47775;-87
2022/01/07 10:16:22;;;;;;;30.02;14.78;;;;;;;2.71;57.32;97546.23;1752368;81;25271;-89
2022/01/07 10:18:49;;;;;;;;;;;;;;;2.86;57.46;97541.98;1754732;81;25729;-87
2022/01/07 10:21:18;;;;;;;27.82;12.40;;;;;;;3.02;56.24;97550.52;1752060;80;26209;-88
2022/01/07 10:23:46;;;;;;;26.20;12.50;;;;;;;3.12;56.57;97545.92;1752330;81;25256;-89
2022/01/07 10:26:19;;;;;;;35.17;16.12;;;;;;;3.31;56.19;97551.97;1752317;81;28349;-89
2022/01/07 10:28:47;;;;;;;41.40;19.80;;;;;;;3.38;55.67;97549.00;1752242;81;25678;-89
2022/01/07 10:31:24;;;;;;;77.32;23.60;;;;;;;3.46;55.25;97554.36;1752375;81;26260;-89
2022/01/07 10:33:53;;;;;;;61.90;33.83;;;;;;;3.54;55.10;97548.52;1752325;81;26037;-90
2022/01/07 10:36:23;;;;;;;27.58;12.93;;;;;;;3.73;54.91;97547.41;1752348;81;25756;-88
2022/01/07 10:39:02;;;;;;;26.05;12.35;;;;;;;3.95;54.43;97548.09;1752026;81;28156;-88
2022/01/07 10:41:28;;;;;;;21.70;10.90;;;;;;;4.09;53.43;97546.59;1752360;81;25318;-87
2022/01/07 10:44:02;;;;;;;21.77;10.50;;;;;;;4.23;52.81;97540.55;1752339;81;25737;-88
2022/01/07 10:46:31;;;;;;;19.95;9.80;;;;;;;4.28;52.86;97539.55;1752137;81;25733;-87
2022/01/07 10:49:04;;;;;;;21.45;10.18;;;;;;;4.53;52.83;97530.99;1752424;81;25756;-87
2022/01/07 10:51:43;;;;;;;19.10;8.88;;;;;;;4.82;52.02;97529.59;1752531;81;27404;-89
2022/01/07 10:54:10;;;;;;;13.60;6.25;;;;;;;5.05;51.88;97523.81;1750617;81;26869;-91
2022/01/07 10:56:51;;;;;;;12.03;6.50;;;;;;;5.24;51.83;97519.87;1752624;81;25843;-89
2022/01/07 10:59:20;;;;;;;13.75;7.12;;;;;;;5.19;50.39;97515.06;1752617;81;26042;-90
2022/01/07 11:01:55;;;;;;;17.02;8.00;;;;;;;5.11;50.09;97511.06;1752498;81;25875;-91
2022/01/07 11:04:29;;;;;;;15.48;7.55;;;;;;;5.28;49.74;97508.65;1751670;81;28172;-90
2022/01/07 11:07:02;;;;;;;15.03;7.22;;;;;;;5.48;50.05;97518.90;1752073;81;25706;-91
2022/01/07 11:09:27;;;;;;;13.18;7.70;;;;;;;5.65;49.30;97512.44;1752528;81;25769;-90
2022/01/07 11:11:57;;;;;;;15.85;8.53;;;;;;;5.88;48.76;97506.61;1752549;81;26697;-90
2022/01/07 11:14:30;;;;;;;23.67;11.55;;;;;;;5.99;47.69;97499.48;1736660;80;25845;-91
2022/01/07 11:17:03;;;;;;;19.27;10.60;;;;;;;5.93;48.33;97501.52;1737453;81;27365;-89
2022/01/07 11:19:42;;;;;;;20.32;10.38;;;;;;;6.14;48.38;97493.66;1752454;81;25722;-90
2022/01/07 11:22:11;;;;;;;19.27;9.95;;;;;;;6.24;47.64;97484.53;1752220;81;25779;-89
2022/01/07 11:24:42;;;;;;;16.90;9.10;;;;;;;6.41;48.18;97479.31;1752476;81;26199;-90
2022/01/07 11:27:28;;;;;;;18.37;8.63;;;;;;;6.64;47.68;97481.41;1752396;81;25737;-89
2022/01/07 11:30:11;;;;;;;18.50;8.60;;;;;;;6.84;48.27;97474.48;1752501;81;27365;-89
2022/01/07 11:32:44;;;;;;;17.57;8.33;;;;;;;6.76;46.90;97467.05;1735734;81;25828;-88